createdAt,value
2022-08-09T00:00:04.742Z,54.28
2022-08-09T00:01:00.360Z,54.61
2022-08-09T00:02:59.964Z,54.36
2022-08-09T00:04:10.959Z,54.74
2022-08-09T00:05:02.947Z,54.63
2022-08-09T00:06:18.516Z,54.21
2022-08-09T00:07:00.303Z,54.30
2022-08-09T00:08:01.472Z,54.00
2022-08-09T00:10:00.022Z,53.91
2022-08-09T00:11:00.857Z,54.00
2022-08-09T00:12:04.555Z,54.21
2022-08-09T00:12:59.953Z,54.55
2022-08-09T00:14:00.089Z,54.38
2022-08-09T00:15:00.474Z,54.48
2022-08-09T00:16:02.726Z,54.44
2022-08-09T00:16:59.942Z,54.23
2022-08-09T00:18:05.512Z,53.81
2022-08-09T00:19:59.915Z,53.75
2022-08-09T00:21:00.271Z,53.94
2022-08-09T00:22:00.019Z,54.04
2022-08-09T00:23:08.305Z,53.81
2022-08-09T00:24:59.941Z,53.61
2022-08-09T00:26:00.036Z,53.58
2022-08-09T00:27:00.348Z,53.67
2022-08-09T00:28:00.079Z,53.47
2022-08-09T00:32:01.075Z,53.63
2022-08-09T00:33:00.737Z,53.57
2022-08-09T00:34:00.015Z,53.43
2022-08-09T00:35:00.459Z,53.72
2022-08-09T00:36:01.025Z,53.59
2022-08-09T00:37:01.097Z,53.58
2022-08-09T00:37:59.940Z,53.57
2022-08-09T00:39:00.464Z,53.60
2022-08-09T00:40:13.802Z,53.36
2022-08-09T00:40:59.990Z,53.50
2022-08-09T00:44:11.856Z,53.24
2022-08-09T00:44:19.390Z,53.42
2022-08-09T00:45:00.091Z,53.45
2022-08-09T00:48:00.075Z,53.50
2022-08-09T00:49:00.872Z,53.47
2022-08-09T00:50:00.047Z,53.51
2022-08-09T00:52:05.194Z,53.58
2022-08-09T00:53:00.250Z,53.62
2022-08-09T00:53:59.970Z,53.80
2022-08-09T00:55:01.810Z,54.15
2022-08-09T00:56:05.872Z,54.07
2022-08-09T00:57:00.126Z,54.07
2022-08-09T00:58:00.159Z,54.09
2022-08-09T00:58:59.895Z,54.17
2022-08-09T00:59:59.941Z,53.70
2022-08-09T01:01:00.088Z,54.05
2022-08-09T01:02:02.440Z,53.99
2022-08-09T01:03:14.501Z,54.11
2022-08-09T01:04:09.358Z,54.09
2022-08-09T01:05:13.886Z,54.27
2022-08-09T01:06:17.709Z,54.47
2022-08-09T01:07:14.671Z,54.63
2022-08-09T01:08:09.390Z,54.58
2022-08-09T01:09:06.347Z,54.61
2022-08-09T01:10:04.967Z,54.56
2022-08-09T01:11:08.631Z,54.72
2022-08-09T01:12:11.834Z,54.82
2022-08-09T01:13:09.172Z,54.41
2022-08-09T01:14:05.356Z,54.18
2022-08-09T01:15:05.957Z,54.04
2022-08-09T01:16:01.605Z,54.28
2022-08-09T01:17:08.867Z,54.30
2022-08-09T01:18:03.703Z,54.21
2022-08-09T01:19:16.929Z,54.03
2022-08-09T01:20:03.289Z,53.86
2022-08-09T01:21:18.114Z,53.76
2022-08-09T01:22:06.691Z,53.68
2022-08-09T01:24:02.716Z,53.67
2022-08-09T01:26:18.286Z,53.28
2022-08-09T01:27:07.828Z,53.06
2022-08-09T01:28:01.927Z,53.02
2022-08-09T01:29:02.039Z,53.22
2022-08-09T01:30:03.019Z,53.33
2022-08-09T01:31:03.355Z,53.44
2022-08-09T01:32:39.057Z,53.70
2022-08-09T01:33:02.255Z,54.03
2022-08-09T01:34:03.516Z,53.79
2022-08-09T01:35:06.834Z,53.46
2022-08-09T01:36:05.750Z,53.01
2022-08-09T01:37:04.829Z,53.06
2022-08-09T01:38:09.470Z,53.22
2022-08-09T01:43:01.009Z,53.10
2022-08-09T01:44:03.579Z,52.58
2022-08-09T01:45:01.069Z,52.34
2022-08-09T01:46:00.846Z,52.04
2022-08-09T01:47:03.417Z,52.20
2022-08-09T01:48:01.911Z,52.22
2022-08-09T01:49:09.444Z,51.94
2022-08-09T01:50:06.512Z,51.21
2022-08-09T01:53:01.930Z,52.06
2022-08-09T01:55:01.949Z,52.00
2022-08-09T01:56:01.944Z,51.96
2022-08-09T01:57:04.606Z,51.80
2022-08-09T01:58:02.575Z,51.89
2022-08-09T01:59:04.498Z,51.98
2022-08-09T02:00:09.068Z,51.64
2022-08-09T02:01:01.570Z,52.09
2022-08-09T02:02:01.311Z,51.85
2022-08-09T02:05:05.286Z,51.46
2022-08-09T02:06:04.110Z,51.49
2022-08-09T02:07:18.397Z,51.54
2022-08-09T02:09:00.038Z,51.25
2022-08-09T02:10:11.865Z,51.47
2022-08-09T02:11:02.836Z,51.32
2022-08-09T02:12:02.053Z,51.43
2022-08-09T02:13:04.668Z,51.30
2022-08-09T02:15:02.436Z,51.04
2022-08-09T02:16:01.037Z,51.12
2022-08-09T02:17:29.515Z,51.26
2022-08-09T02:18:10.496Z,50.94
2022-08-09T02:19:01.036Z,50.98
2022-08-09T02:20:02.091Z,51.06
2022-08-09T02:24:01.851Z,51.77
2022-08-09T02:25:03.117Z,51.66
2022-08-09T02:26:03.030Z,51.69
2022-08-09T02:27:04.651Z,51.62
2022-08-09T02:31:05.966Z,51.05
2022-08-09T02:32:04.418Z,51.01
2022-08-09T02:33:01.417Z,51.32
2022-08-09T02:34:13.868Z,51.43
2022-08-09T02:35:17.190Z,51.61
2022-08-09T02:36:04.281Z,51.70
2022-08-09T02:37:03.234Z,51.99
2022-08-09T02:38:04.257Z,52.07
2022-08-09T02:40:09.259Z,52.47
2022-08-09T02:41:09.067Z,52.26
2022-08-09T02:42:03.877Z,52.45
2022-08-09T02:44:06.639Z,52.44
2022-08-09T02:45:09.186Z,52.47
2022-08-09T02:46:02.795Z,52.30
2022-08-09T02:47:05.998Z,52.19
2022-08-09T02:48:04.062Z,52.31
2022-08-09T02:49:04.339Z,52.18
2022-08-09T02:50:10.840Z,52.20
2022-08-09T02:51:02.453Z,52.21
2022-08-09T02:52:03.755Z,52.69
2022-08-09T02:53:03.899Z,52.54
2022-08-09T02:54:03.511Z,52.15
2022-08-09T02:55:03.160Z,52.87
2022-08-09T02:57:14.010Z,52.36
2022-08-09T02:59:02.743Z,52.71
2022-08-09T03:01:04.551Z,52.44
2022-08-09T03:02:06.717Z,52.92
2022-08-09T03:04:17.192Z,52.24
2022-08-09T03:05:01.222Z,51.73
2022-08-09T03:06:01.962Z,52.48
2022-08-09T03:08:02.453Z,52.24
2022-08-09T03:09:01.139Z,51.63
2022-08-09T03:10:00.980Z,51.95
2022-08-09T03:11:01.595Z,51.44
2022-08-09T03:12:05.618Z,52.17
2022-08-09T03:13:00.837Z,52.07
2022-08-09T03:14:01.780Z,52.20
2022-08-09T03:15:00.863Z,52.71
2022-08-09T03:16:05.873Z,51.95
2022-08-09T03:17:01.687Z,52.49
2022-08-09T03:18:00.652Z,51.88
2022-08-09T03:19:02.850Z,51.88
2022-08-09T03:20:10.663Z,52.18
2022-08-09T03:21:01.479Z,51.95
2022-08-09T03:22:00.519Z,51.85
2022-08-09T03:23:15.397Z,52.34
2022-08-09T03:24:03.794Z,52.94
2022-08-09T03:25:21.935Z,53.01
2022-08-09T03:26:03.279Z,52.39
2022-08-09T03:27:01.757Z,52.66
2022-08-09T03:28:02.166Z,51.98
2022-08-09T03:29:00.315Z,52.09
2022-08-09T03:30:01.215Z,52.01
2022-08-09T03:31:04.414Z,52.18
2022-08-09T03:32:00.990Z,52.26
2022-08-09T03:33:05.592Z,52.22
2022-08-09T03:34:02.454Z,52.36
2022-08-09T03:35:00.376Z,52.21
2022-08-09T03:36:13.537Z,52.59
2022-08-09T03:37:02.337Z,52.26
2022-08-09T03:38:00.167Z,52.44
2022-08-09T03:38:59.952Z,52.58
2022-08-09T03:39:59.993Z,52.89
2022-08-09T03:42:06.067Z,52.88
2022-08-09T03:42:59.832Z,52.84
2022-08-09T03:44:03.949Z,52.99
2022-08-09T03:47:59.846Z,52.82
2022-08-09T03:49:04.123Z,53.02
2022-08-09T03:51:01.050Z,53.00
2022-08-09T03:54:00.303Z,53.07
2022-08-09T03:57:01.611Z,52.77
2022-08-09T03:58:06.546Z,52.89
2022-08-09T03:58:59.966Z,52.85
2022-08-09T04:00:00.702Z,52.28
2022-08-09T04:01:00.372Z,53.32
2022-08-09T04:02:00.494Z,53.24
2022-08-09T04:03:01.332Z,53.18
2022-08-09T04:05:06.584Z,52.72
2022-08-09T04:06:00.126Z,52.68
2022-08-09T04:06:59.964Z,52.31
2022-08-09T04:08:00.833Z,52.51
2022-08-09T04:09:03.526Z,52.65
2022-08-09T04:09:59.913Z,53.01
2022-08-09T04:11:01.715Z,52.55
2022-08-09T04:12:01.116Z,52.75
2022-08-09T04:13:04.101Z,52.93
2022-08-09T04:16:59.817Z,52.78
2022-08-09T04:19:00.001Z,53.24
2022-08-09T04:20:02.704Z,53.11
2022-08-09T04:20:59.985Z,53.40
2022-08-09T04:22:00.202Z,53.60
2022-08-09T04:23:59.842Z,53.80
2022-08-09T04:25:59.794Z,54.35
2022-08-09T04:26:59.805Z,54.31
2022-08-09T04:28:03.560Z,54.46
2022-08-09T04:29:01.467Z,54.27
2022-08-09T04:29:59.926Z,54.44
2022-08-09T04:30:59.866Z,54.64
2022-08-09T04:32:00.257Z,54.77
2022-08-09T04:33:01.946Z,54.81
2022-08-09T04:33:59.853Z,54.60
2022-08-09T04:35:01.296Z,54.53
2022-08-09T04:35:59.753Z,54.28
2022-08-09T04:37:00.359Z,54.47
2022-08-09T04:37:59.764Z,54.27
2022-08-09T04:39:03.435Z,54.58
2022-08-09T04:39:59.826Z,54.58
2022-08-09T04:40:59.779Z,54.43
2022-08-09T04:42:02.513Z,54.71
2022-08-09T04:42:59.715Z,54.62
2022-08-09T04:44:06.467Z,54.97
2022-08-09T04:45:01.051Z,54.82
2022-08-09T04:46:01.266Z,54.82
2022-08-09T04:47:01.285Z,55.12
2022-08-09T04:48:02.187Z,55.54
2022-08-09T04:48:59.725Z,55.51
2022-08-09T04:49:59.828Z,55.67
2022-08-09T04:50:59.820Z,55.60
2022-08-09T04:52:00.194Z,55.82
2022-08-09T04:53:00.585Z,55.39
2022-08-09T04:53:59.810Z,55.45
2022-08-09T04:55:02.542Z,55.94
2022-08-09T04:56:00.016Z,55.95
2022-08-09T04:57:00.123Z,56.09
2022-08-09T04:58:09.136Z,56.13
2022-08-09T04:59:02.696Z,56.12
2022-08-09T04:59:59.760Z,56.34
2022-08-09T05:01:00.344Z,56.39
2022-08-09T05:02:02.981Z,56.45
2022-08-09T05:03:01.634Z,56.39
2022-08-09T05:03:59.746Z,56.67
2022-08-09T05:05:09.611Z,56.78
2022-08-09T05:06:04.512Z,56.92
2022-08-09T05:06:59.841Z,56.96
2022-08-09T05:07:59.780Z,57.08
2022-08-09T05:09:00.698Z,57.05
2022-08-09T05:10:02.124Z,57.05
2022-08-09T05:11:01.061Z,57.08
2022-08-09T05:12:00.140Z,57.08
2022-08-09T05:12:59.730Z,57.34
2022-08-09T05:14:00.007Z,57.34
2022-08-09T05:14:59.669Z,57.27
2022-08-09T05:16:00.153Z,57.27
2022-08-09T05:17:00.105Z,57.50
2022-08-09T05:18:42.207Z,57.51
2022-08-09T05:19:00.589Z,57.56
2022-08-09T05:19:59.748Z,57.57
2022-08-09T05:21:01.624Z,57.66
2022-08-09T05:21:59.812Z,57.72
2022-08-09T05:23:55.630Z,57.80
2022-08-09T05:24:02.235Z,57.98
2022-08-09T05:25:01.069Z,58.16
2022-08-09T05:25:59.775Z,58.19
2022-08-09T05:26:59.765Z,58.29
2022-08-09T05:27:59.766Z,58.43
2022-08-09T05:28:59.748Z,58.41
2022-08-09T05:29:59.810Z,58.61
2022-08-09T05:30:59.678Z,58.64
2022-08-09T05:32:01.339Z,58.67
2022-08-09T05:33:00.782Z,58.74
2022-08-09T05:33:59.755Z,58.90
2022-08-09T05:34:59.730Z,59.01
2022-08-09T05:35:59.684Z,59.06
2022-08-09T05:37:05.979Z,59.12
2022-08-09T05:37:59.659Z,59.25
2022-08-09T05:38:59.756Z,59.24
2022-08-09T05:39:59.734Z,59.28
2022-08-09T05:41:00.024Z,59.45
2022-08-09T05:42:01.643Z,59.65
2022-08-09T05:42:59.699Z,59.83
2022-08-09T05:43:59.778Z,59.90
2022-08-09T05:45:00.619Z,59.98
2022-08-09T05:45:59.753Z,60.08
2022-08-09T05:46:59.831Z,60.32
2022-08-09T05:48:01.327Z,60.41
2022-08-09T05:49:00.017Z,60.55
2022-08-09T05:50:24.325Z,60.73
2022-08-09T05:51:30.363Z,60.88
2022-08-09T05:51:59.708Z,61.00
2022-08-09T05:52:59.710Z,61.20
2022-08-09T05:53:59.909Z,61.36
2022-08-09T05:55:03.190Z,61.49
2022-08-09T05:55:59.686Z,61.54
2022-08-09T05:56:59.766Z,61.71
2022-08-09T05:57:59.857Z,61.82
2022-08-09T05:58:59.709Z,61.89
2022-08-09T05:59:59.669Z,62.01
2022-08-09T06:01:00.298Z,62.12
2022-08-09T06:01:59.665Z,62.22
2022-08-09T06:03:01.455Z,62.33
2022-08-09T06:03:59.951Z,62.43
2022-08-09T06:04:59.689Z,62.46
2022-08-09T06:06:06.087Z,62.61
2022-08-09T06:06:59.667Z,62.77
2022-08-09T06:08:05.454Z,62.94
2022-08-09T06:08:59.698Z,62.93
2022-08-09T06:10:02.464Z,63.04
2022-08-09T06:10:59.872Z,63.19
2022-08-09T06:11:59.628Z,63.34
2022-08-09T06:13:11.691Z,63.38
2022-08-09T06:13:59.653Z,63.42
2022-08-09T06:15:01.824Z,63.51
2022-08-09T06:15:59.902Z,63.66
2022-08-09T06:16:59.670Z,63.79
2022-08-09T06:17:59.730Z,64.02
2022-08-09T06:18:59.672Z,64.10
2022-08-09T06:19:59.663Z,64.30
2022-08-09T06:20:59.906Z,64.30
2022-08-09T06:21:59.654Z,64.53
2022-08-09T06:22:59.838Z,64.70
2022-08-09T06:24:02.576Z,64.79
2022-08-09T06:24:59.706Z,65.05
2022-08-09T06:26:01.374Z,65.13
2022-08-09T06:30:59.712Z,65.43
2022-08-09T06:32:08.706Z,65.47
2022-08-09T06:33:30.010Z,65.47
2022-08-09T06:34:00.136Z,65.50
2022-08-09T06:34:59.619Z,65.54
2022-08-09T06:35:59.723Z,65.56
2022-08-09T06:37:00.132Z,65.63
2022-08-09T06:38:06.064Z,65.65
2022-08-09T06:39:02.598Z,65.69
2022-08-09T06:40:01.910Z,65.70
2022-08-09T06:40:59.680Z,65.77
2022-08-09T06:42:09.340Z,65.90
2022-08-09T06:43:01.234Z,65.90
2022-08-09T06:43:59.652Z,65.99
2022-08-09T06:45:04.633Z,66.04
2022-08-09T06:46:06.312Z,66.10
2022-08-09T06:46:59.991Z,66.19
2022-08-09T06:48:01.381Z,66.14
2022-08-09T06:49:00.493Z,66.20
2022-08-09T06:51:00.276Z,66.33
2022-08-09T06:51:59.616Z,66.35
2022-08-09T06:53:00.932Z,66.37
2022-08-09T06:54:00.850Z,66.42
2022-08-09T06:54:59.703Z,66.46
2022-08-09T06:56:00.475Z,66.49
2022-08-09T06:56:59.611Z,66.50
2022-08-09T06:58:02.623Z,66.52
2022-08-09T07:00:51.003Z,66.56
2022-08-09T07:00:54.740Z,66.63
2022-08-09T07:02:04.593Z,66.76
2022-08-09T07:02:59.697Z,66.78
2022-08-09T07:04:03.666Z,66.83
2022-08-09T07:05:00.342Z,66.87
2022-08-09T07:06:04.412Z,66.89
2022-08-09T07:07:00.506Z,66.95
2022-08-09T07:08:01.752Z,66.96
2022-08-09T07:08:59.649Z,66.95
2022-08-09T07:10:14.296Z,66.93
2022-08-09T07:10:59.798Z,67.00
2022-08-09T07:11:59.635Z,67.04
2022-08-09T07:13:00.030Z,67.10
2022-08-09T07:14:05.496Z,67.19
2022-08-09T07:14:59.606Z,67.34
2022-08-09T07:16:43.153Z,67.44
2022-08-09T07:16:59.724Z,67.49
2022-08-09T07:18:02.309Z,67.54
2022-08-09T07:18:59.599Z,67.61
2022-08-09T07:19:59.606Z,67.70
2022-08-09T07:20:59.643Z,67.79
2022-08-09T07:21:59.903Z,67.91
2022-08-09T07:22:59.665Z,68.02
2022-08-09T07:23:59.613Z,68.13
2022-08-09T07:24:59.734Z,68.23
2022-08-09T07:26:02.601Z,68.36
2022-08-09T07:29:08.663Z,68.43
2022-08-09T07:32:59.694Z,68.53
2022-08-09T07:33:59.910Z,68.57
2022-08-09T07:34:59.614Z,68.67
2022-08-09T07:37:59.737Z,68.88
2022-08-09T07:39:00.945Z,68.92
2022-08-09T07:39:59.806Z,68.96
2022-08-09T07:41:11.133Z,69.02
2022-08-09T07:41:59.618Z,69.15
2022-08-09T07:43:01.398Z,69.22
2022-08-09T07:45:01.819Z,69.31
2022-08-09T07:46:03.021Z,69.37
2022-08-09T07:48:04.428Z,69.52
2022-08-09T07:49:00.316Z,69.50
2022-08-09T07:50:07.873Z,69.49
2022-08-09T07:51:09.949Z,69.48
2022-08-09T07:52:05.484Z,69.48
2022-08-09T07:53:02.851Z,69.44
2022-08-09T07:56:03.659Z,69.43
2022-08-09T07:57:01.022Z,69.36
2022-08-09T07:58:59.919Z,69.35
2022-08-09T08:00:03.434Z,69.35
2022-08-09T08:01:06.813Z,69.32
2022-08-09T08:05:00.017Z,69.35
2022-08-09T08:07:00.151Z,69.42
2022-08-09T08:08:59.970Z,69.37
2022-08-09T08:11:03.210Z,69.49
2022-08-09T08:13:04.953Z,69.59
2022-08-09T08:14:59.927Z,69.61
2022-08-09T08:15:59.536Z,69.59
2022-08-09T08:17:07.641Z,69.62
2022-08-09T08:17:59.586Z,69.67
2022-08-09T08:19:03.163Z,69.66
2022-08-09T08:19:59.559Z,69.69
2022-08-09T08:20:59.578Z,69.72
2022-08-09T08:21:59.654Z,69.74
2022-08-09T08:23:06.645Z,69.82
2022-08-09T08:24:01.386Z,69.85
2022-08-09T08:24:59.730Z,69.90
2022-08-09T08:26:06.612Z,69.99
2022-08-09T08:26:59.587Z,70.05
2022-08-09T08:27:59.924Z,70.12
2022-08-09T08:28:59.609Z,70.12
2022-08-09T08:29:59.498Z,70.17
2022-08-09T08:31:00.809Z,70.28
2022-08-09T08:32:03.848Z,70.28
2022-08-09T08:33:00.056Z,70.36
2022-08-09T08:33:59.883Z,70.46
2022-08-09T08:34:59.747Z,70.57
2022-08-09T08:36:00.873Z,70.58
2022-08-09T08:37:01.248Z,70.66
2022-08-09T08:38:04.801Z,70.76
2022-08-09T08:39:59.867Z,70.86
2022-08-09T08:42:00.222Z,70.94
2022-08-09T08:44:02.689Z,71.04
2022-08-09T08:45:11.652Z,71.12
2022-08-09T08:46:31.990Z,71.12
2022-08-09T08:47:04.450Z,70.99
2022-08-09T08:48:00.190Z,70.93
2022-08-09T08:49:00.202Z,70.93
2022-08-09T08:50:02.660Z,71.03
2022-08-09T08:50:59.953Z,71.19
2022-08-09T08:52:01.892Z,71.36
2022-08-09T08:55:01.477Z,71.46
2022-08-09T08:56:00.487Z,71.45
2022-08-09T08:56:59.798Z,71.32
2022-08-09T08:57:59.677Z,71.36
2022-08-09T08:58:59.699Z,71.44
2022-08-09T08:59:59.606Z,71.54
2022-08-09T09:01:03.118Z,71.55
2022-08-09T09:02:00.335Z,71.54
2022-08-09T09:04:00.653Z,71.56
2022-08-09T09:05:06.188Z,71.56
2022-08-09T09:06:05.188Z,71.54
2022-08-09T09:09:00.726Z,71.66
2022-08-09T09:12:00.238Z,71.80
2022-08-09T09:13:00.345Z,71.87
2022-08-09T09:14:10.012Z,71.96
2022-08-09T09:15:01.461Z,71.91
2022-08-09T09:15:59.614Z,71.92
2022-08-09T09:17:00.968Z,71.91
2022-08-09T09:17:59.557Z,71.84
2022-08-09T09:19:36.555Z,71.82
2022-08-09T09:19:59.963Z,71.76
2022-08-09T09:20:59.695Z,71.71
2022-08-09T09:26:04.439Z,71.60
2022-08-09T09:29:04.542Z,71.75
2022-08-09T09:30:37.358Z,71.77
2022-08-09T09:33:16.920Z,71.86
2022-08-09T09:34:14.554Z,71.87
2022-08-09T09:35:10.815Z,71.84
2022-08-09T09:36:11.791Z,71.78
2022-08-09T09:37:00.686Z,71.70
2022-08-09T09:38:00.450Z,71.61
2022-08-09T09:38:59.627Z,71.64
2022-08-09T09:40:00.726Z,71.70
2022-08-09T09:40:59.487Z,71.76
2022-08-09T09:42:00.769Z,71.79
2022-08-09T09:42:59.468Z,71.84
2022-08-09T09:44:12.989Z,71.93
2022-08-09T09:45:03.266Z,72.09
2022-08-09T09:47:08.567Z,72.04
2022-08-09T09:48:04.968Z,72.05
2022-08-09T09:49:01.827Z,72.05
2022-08-09T09:50:14.855Z,72.00
2022-08-09T09:50:59.688Z,72.09
2022-08-09T09:52:06.438Z,72.24
2022-08-09T09:52:59.884Z,72.35
2022-08-09T09:54:17.132Z,72.41
2022-08-09T09:55:07.936Z,72.46
2022-08-09T09:56:04.297Z,72.45
2022-08-09T09:58:03.151Z,72.43
2022-08-09T09:58:15.703Z,72.46
2022-08-09T09:59:59.501Z,72.56
2022-08-09T10:01:00.038Z,72.59
2022-08-09T10:02:01.253Z,72.57
2022-08-09T10:03:00.494Z,72.29
2022-08-09T10:04:03.266Z,72.14
2022-08-09T10:05:08.848Z,72.08
2022-08-09T10:06:05.179Z,72.09
2022-08-09T10:07:03.557Z,72.15
2022-08-09T10:08:26.055Z,72.20
2022-08-09T10:09:12.007Z,72.37
2022-08-09T10:10:03.140Z,72.53
2022-08-09T10:10:59.703Z,72.77
2022-08-09T10:12:12.333Z,72.76
2022-08-09T10:13:00.101Z,72.97
2022-08-09T10:13:59.766Z,73.21
2022-08-09T10:15:17.565Z,73.22
2022-08-09T10:19:01.923Z,73.14
2022-08-09T10:20:00.288Z,73.11
2022-08-09T10:21:08.701Z,73.19
2022-08-09T10:22:01.052Z,73.43
2022-08-09T10:23:00.966Z,73.43
2022-08-09T10:24:03.956Z,73.59
2022-08-09T10:25:03.519Z,73.55
2022-08-09T10:26:07.375Z,73.68
2022-08-09T10:27:00.375Z,73.82
2022-08-09T10:27:59.949Z,73.97
2022-08-09T10:29:22.716Z,73.99
2022-08-09T10:32:37.542Z,73.87
2022-08-09T10:33:00.811Z,73.77
2022-08-09T10:35:00.966Z,73.81
2022-08-09T10:36:59.833Z,73.89
2022-08-09T10:38:59.864Z,74.40
2022-08-09T10:40:00.855Z,74.27
2022-08-09T10:40:59.746Z,74.21
2022-08-09T10:41:59.496Z,74.19
2022-08-09T10:43:00.039Z,74.11
2022-08-09T10:44:01.935Z,73.99
2022-08-09T10:46:15.980Z,73.85
2022-08-09T10:48:26.382Z,73.81
2022-08-09T10:49:07.837Z,73.73
2022-08-09T10:50:15.009Z,73.60
2022-08-09T10:51:11.985Z,73.43
2022-08-09T10:52:20.183Z,73.39
2022-08-09T10:53:15.003Z,73.43
2022-08-09T10:54:05.893Z,73.48
2022-08-09T10:55:13.137Z,73.42
2022-08-09T10:57:11.671Z,73.77
2022-08-09T10:57:56.019Z,73.96
2022-08-09T10:58:55.253Z,74.09
2022-08-09T10:59:57.742Z,74.20
2022-08-09T11:03:02.559Z,74.22
2022-08-09T11:03:15.571Z,74.26
2022-08-09T11:03:16.002Z,74.24
2022-08-09T11:04:28.332Z,74.27
2022-08-09T11:05:11.628Z,74.26
2022-08-09T11:06:11.574Z,74.24
2022-08-09T11:07:02.267Z,74.26
2022-08-09T11:08:54.336Z,74.23
2022-08-09T11:09:53.929Z,74.22
2022-08-09T11:13:11.589Z,74.01
2022-08-09T11:14:11.610Z,73.93
2022-08-09T11:14:55.934Z,73.81
2022-08-09T11:16:09.571Z,73.82
2022-08-09T11:16:53.487Z,73.83
2022-08-09T11:18:03.631Z,73.86
2022-08-09T11:18:53.464Z,73.97
2022-08-09T11:20:19.735Z,74.06
2022-08-09T11:21:21.029Z,74.12
2022-08-09T11:23:29.956Z,74.20
2022-08-09T11:24:21.055Z,74.22
2022-08-09T11:25:25.748Z,74.26
2022-08-09T11:26:21.045Z,74.23
2022-08-09T11:27:25.497Z,74.29
2022-08-09T11:28:30.912Z,74.30
2022-08-09T11:30:32.413Z,74.30
2022-08-09T11:31:33.769Z,74.29
2022-08-09T11:32:21.006Z,74.22
2022-08-09T11:33:20.990Z,74.20
2022-08-09T11:34:20.993Z,74.19
2022-08-09T11:35:25.053Z,74.16
2022-08-09T11:36:30.330Z,74.15
2022-08-09T11:37:20.990Z,74.21
2022-08-09T11:38:22.280Z,74.25
2022-08-09T11:39:21.097Z,74.32
2022-08-09T11:40:21.010Z,74.36
2022-08-09T11:41:20.978Z,74.41
2022-08-09T11:42:18.620Z,74.46
2022-08-09T11:42:55.357Z,74.50
2022-08-09T11:44:20.981Z,74.47
2022-08-09T11:45:21.058Z,74.42
2022-08-09T11:46:32.837Z,74.49
2022-08-09T11:47:20.990Z,74.54
2022-08-09T11:48:26.418Z,74.61
2022-08-09T11:50:55.432Z,74.60
2022-08-09T11:52:56.628Z,74.54
2022-08-09T11:54:01.344Z,74.54
2022-08-09T11:56:53.759Z,74.67
2022-08-09T11:58:00.478Z,74.70
2022-08-09T11:58:56.007Z,74.75
2022-08-09T11:59:53.732Z,74.80
2022-08-09T12:00:56.409Z,74.79
2022-08-09T12:02:21.232Z,74.77
2022-08-09T12:02:54.815Z,74.74
2022-08-09T12:04:01.024Z,74.74
2022-08-09T12:04:58.717Z,74.74
2022-08-09T12:05:56.339Z,74.70
2022-08-09T12:06:56.467Z,74.69
2022-08-09T12:07:54.718Z,74.67
2022-08-09T12:09:53.774Z,74.59
2022-08-09T12:12:53.898Z,74.59
2022-08-09T12:15:07.374Z,74.54
2022-08-09T12:16:04.364Z,74.54
2022-08-09T12:16:53.765Z,74.59
2022-08-09T12:17:55.086Z,74.66
2022-08-09T12:19:53.547Z,74.80
2022-08-09T12:21:55.488Z,74.88
2022-08-09T12:22:57.901Z,74.89
2022-08-09T12:24:06.199Z,74.88
2022-08-09T12:29:10.358Z,74.94
2022-08-09T12:29:11.815Z,74.93
2022-08-09T12:30:01.725Z,74.94
2022-08-09T12:30:54.373Z,74.94
2022-08-09T12:32:05.492Z,74.91
2022-08-09T12:33:03.278Z,74.88
2022-08-09T12:34:01.141Z,74.86
2022-08-09T12:35:00.103Z,74.87
2022-08-09T12:36:27.526Z,74.90
2022-08-09T12:36:59.109Z,74.89
2022-08-09T12:38:55.072Z,74.85
2022-08-09T12:40:02.663Z,74.81
2022-08-09T12:40:54.043Z,74.73
2022-08-09T12:41:53.728Z,74.63
2022-08-09T12:42:54.329Z,74.59
2022-08-09T12:44:05.500Z,74.57
2022-08-09T12:44:54.536Z,74.58
2022-08-09T12:45:59.339Z,74.62
2022-08-09T12:46:53.556Z,74.66
2022-08-09T12:47:53.810Z,74.69
2022-08-09T12:48:54.897Z,74.73
2022-08-09T12:50:03.149Z,74.80
2022-08-09T12:50:53.986Z,74.86
2022-08-09T12:52:02.383Z,74.88
2022-08-09T12:53:09.250Z,74.92
2022-08-09T12:54:00.548Z,74.95
2022-08-09T12:56:12.864Z,74.93
2022-08-09T12:56:54.627Z,74.93
2022-08-09T12:59:06.974Z,74.94
2022-08-09T13:00:02.880Z,74.94
2022-08-09T13:00:53.530Z,74.94
2022-08-09T13:04:02.061Z,74.96
2022-08-09T13:05:02.563Z,74.98
2022-08-09T13:08:12.738Z,74.92
2022-08-09T13:09:02.473Z,74.90
2022-08-09T13:10:02.890Z,74.84
2022-08-09T13:10:57.169Z,74.81
2022-08-09T13:12:02.020Z,74.76
2022-08-09T13:13:09.026Z,74.76
2022-08-09T13:14:37.911Z,74.80
2022-08-09T13:14:55.131Z,74.88
2022-08-09T13:15:57.249Z,74.99
2022-08-09T13:18:04.636Z,75.13
2022-08-09T13:18:54.746Z,75.18
2022-08-09T13:20:06.979Z,75.23
2022-08-09T13:22:33.877Z,75.23
2022-08-09T13:22:35.318Z,75.27
2022-08-09T13:23:01.192Z,75.30
2022-08-09T13:24:16.271Z,75.30
2022-08-09T13:25:03.651Z,75.30
2022-08-09T13:25:55.920Z,75.29
2022-08-09T13:26:53.435Z,75.29
2022-08-09T13:29:06.463Z,75.40
2022-08-09T13:30:03.759Z,75.46
2022-08-09T13:32:13.679Z,75.47
2022-08-09T13:33:54.458Z,75.28
2022-08-09T13:34:53.611Z,75.26
2022-08-09T13:36:37.869Z,75.25
2022-08-09T13:36:53.860Z,75.26
2022-08-09T13:37:58.028Z,75.33
2022-08-09T13:38:58.832Z,75.43
2022-08-09T13:41:56.385Z,75.57
2022-08-09T13:42:01.522Z,75.64
2022-08-09T13:42:53.949Z,75.72
2022-08-09T13:43:53.366Z,75.79
2022-08-09T13:44:53.439Z,75.86
2022-08-09T13:46:44.457Z,75.92
2022-08-09T13:47:28.847Z,75.91
2022-08-09T13:47:58.804Z,75.86
2022-08-09T13:49:57.492Z,75.92
2022-08-09T13:52:01.282Z,75.74
2022-08-09T13:52:53.452Z,75.60
2022-08-09T13:53:53.399Z,75.51
2022-08-09T13:55:00.452Z,75.46
2022-08-09T13:55:53.395Z,75.43
2022-08-09T13:56:53.399Z,75.40
2022-08-09T13:57:58.549Z,75.38
2022-08-09T13:58:53.486Z,75.43
2022-08-09T13:59:53.645Z,75.46
2022-08-09T14:00:54.751Z,75.49
2022-08-09T14:01:56.722Z,75.55
2022-08-09T14:04:02.459Z,75.59
2022-08-09T14:04:59.844Z,75.58
2022-08-09T14:05:58.860Z,75.63
2022-08-09T14:06:58.120Z,75.66
2022-08-09T14:07:53.404Z,75.67
2022-08-09T14:08:54.501Z,75.70
2022-08-09T14:11:55.128Z,75.69
2022-08-09T14:14:24.136Z,75.66
2022-08-09T14:14:53.482Z,75.62
2022-08-09T14:16:54.628Z,75.49
2022-08-09T14:18:16.749Z,75.49
2022-08-09T14:18:53.757Z,75.47
2022-08-09T14:19:55.446Z,75.38
2022-08-09T14:20:53.952Z,75.26
2022-08-09T14:21:53.898Z,75.21
2022-08-09T14:22:53.442Z,75.29
2022-08-09T14:23:56.859Z,75.33
2022-08-09T14:24:54.275Z,75.38
2022-08-09T14:26:53.591Z,75.43
2022-08-09T14:27:58.796Z,75.44
2022-08-09T14:28:54.361Z,75.36
2022-08-09T14:30:34.344Z,75.38
2022-08-09T14:30:53.387Z,75.49
2022-08-09T14:31:54.658Z,75.58
2022-08-09T14:32:53.451Z,75.66
2022-08-09T14:33:54.779Z,75.74
2022-08-09T14:35:54.927Z,75.83
2022-08-09T14:36:53.367Z,75.82
2022-08-09T14:41:04.496Z,75.87
2022-08-09T14:41:53.398Z,75.90
2022-08-09T14:42:53.411Z,75.88
2022-08-09T14:43:53.969Z,75.84
2022-08-09T14:47:15.592Z,75.86
2022-08-09T14:47:56.864Z,75.90
2022-08-09T14:48:53.437Z,75.91
2022-08-09T14:50:02.181Z,76.00
2022-08-09T14:50:53.406Z,76.11
2022-08-09T14:51:58.295Z,76.14
2022-08-09T14:52:53.381Z,76.09
2022-08-09T14:54:53.358Z,75.99
2022-08-09T14:55:53.501Z,75.99
2022-08-09T14:56:57.447Z,75.96
2022-08-09T14:57:53.793Z,75.98
2022-08-09T14:59:53.489Z,76.08
2022-08-09T15:01:53.384Z,76.05
2022-08-09T15:02:53.335Z,76.10
2022-08-09T15:03:53.396Z,76.12
2022-08-09T15:04:53.386Z,76.15
2022-08-09T15:05:56.830Z,76.15
2022-08-09T15:07:54.918Z,75.98
2022-08-09T15:08:56.638Z,75.93
2022-08-09T15:10:07.801Z,75.94
2022-08-09T15:11:00.285Z,75.94
2022-08-09T15:11:53.530Z,75.95
2022-08-09T15:12:55.695Z,76.03
2022-08-09T15:14:01.434Z,76.17
2022-08-09T15:15:53.310Z,76.25
2022-08-09T15:17:53.682Z,76.18
2022-08-09T15:18:53.297Z,76.20
2022-08-09T15:19:59.888Z,76.31
2022-08-09T15:21:57.067Z,76.27
2022-08-09T15:22:59.813Z,76.20
2022-08-09T15:24:01.587Z,76.19
2022-08-09T15:24:53.855Z,76.17
2022-08-09T15:26:53.611Z,76.22
2022-08-09T15:28:00.485Z,76.16
2022-08-09T15:28:54.834Z,76.14
2022-08-09T15:30:56.877Z,76.11
2022-08-09T15:31:00.472Z,76.06
2022-08-09T15:31:53.514Z,76.01
2022-08-09T15:32:53.348Z,75.96
2022-08-09T15:34:17.633Z,75.94
2022-08-09T15:34:53.823Z,75.91